Time;durP1;ratioP1;P1;durP2;ratioP2;P2;SDS_P1;SDS_P2;PMS_P1;PMS_P2;Temp;Humidity;BMP_temperature;BMP_pressure;BME280_temperature;BME280_humidity;BME280_pressure;Samples;Min_cycle;Max_cycle;Signal;HPM_P1;HPM_P2
2022/03/07 00:00:15;;;;;;;73.40;28.15;;;;;;;2.81;81.33;99645.84;3151147;28;20125;-74
2022/03/07 00:01:46;;;;;;;;;;;;;;;2.65;81.45;99652.94;3153970;28;20125;-74
2022/03/07 00:03:20;;;;;;;75.80;27.83;;;;;;;2.63;81.65;99633.25;3151485;28;19920;-74
2022/03/07 00:04:52;;;;;;;80.85;29.05;;;;;;;2.75;81.66;99645.91;3146079;28;20060;-74
2022/03/07 00:06:24;;;;;;;76.70;28.02;;;;;;;2.77;81.60;99645.91;3149183;28;20048;-74
2022/03/07 00:07:56;;;;;;;76.78;28.48;;;;;;;2.71;81.49;99631.44;3151412;28;20097;-74
2022/03/07 00:09:28;;;;;;;82.28;27.67;;;;;;;2.58;81.41;99611.94;3144971;28;20049;-74
2022/03/07 00:10:59;;;;;;;76.82;28.75;;;;;;;2.84;81.45;99653.53;3151390;28;20052;-74
2022/03/07 00:12:34;;;;;;;75.72;28.88;;;;;;;2.86;81.52;99654.31;3155816;28;20179;-74
2022/03/07 00:14:06;;;;;;;74.10;27.30;;;;;;;2.47;81.54;99587.25;3145806;28;20056;-74
2022/03/07 00:15:38;;;;;;;77.90;30.15;;;;;;;2.86;81.59;99636.31;3153675;28;20109;-74
2022/03/07 00:17:10;;;;;;;71.35;28.75;;;;;;;2.88;81.46;99644.03;3149788;28;20052;-74
2022/03/07 00:18:43;;;;;;;77.22;27.83;;;;;;;2.65;81.51;99600.69;3148721;28;20056;-74
2022/03/07 00:20:16;;;;;;;77.65;28.13;;;;;;;2.86;81.52;99636.31;3151922;28;20060;-74
2022/03/07 00:21:47;;;;;;;78.43;29.52;;;;;;;2.88;81.53;99636.31;3144581;28;20080;-74
2022/03/07 00:23:19;;;;;;;76.97;29.05;;;;;;;2.89;81.63;99643.13;3151231;28;20063;-74
2022/03/07 00:24:50;;;;;;;73.28;28.55;;;;;;;2.89;81.56;99643.97;3148010;28;20084;-74
2022/03/07 00:26:22;;;;;;;67.63;26.35;;;;;;;2.90;81.51;99640.56;3148477;28;20070;-74
2022/03/07 00:27:54;;;;;;;61.97;26.60;;;;;;;2.91;81.63;99637.09;3155244;28;20059;-73
2022/03/07 00:29:27;;;;;;;68.93;26.67;;;;;;;2.92;81.54;99643.94;3146547;28;20044;-74
2022/03/07 00:30:59;;;;;;;69.32;27.48;;;;;;;2.90;81.62;99640.56;3151960;28;20148;-73
2022/03/07 00:32:31;;;;;;;71.38;26.70;;;;;;;2.90;81.64;99635.41;3152706;28;20098;-73
2022/03/07 00:34:03;;;;;;;67.20;27.48;;;;;;;2.73;81.67;99604.81;3151636;28;20048;-73
2022/03/07 00:35:35;;;;;;;72.70;27.58;;;;;;;2.91;81.70;99629.38;3155365;28;20055;-72
2022/03/07 00:37:07;;;;;;;62.78;24.88;;;;;;;2.92;81.70;99628.50;3147890;28;20048;-73
2022/03/07 00:38:38;;;;;;;68.35;25.23;;;;;;;2.58;81.52;99571.66;3149231;28;20134;-75
2022/03/07 00:40:11;;;;;;;68.15;27.83;;;;;;;2.92;81.60;99618.22;3154399;28;20517;-73
2022/03/07 00:41:43;;;;;;;72.57;26.23;;;;;;;2.85;81.67;99616.63;3146724;28;20041;-73
2022/03/07 00:43:15;;;;;;;61.40;25.30;;;;;;;2.94;81.54;99628.50;3151196;28;20052;-74
2022/03/07 00:44:47;;;;;;;61.83;26.13;;;;;;;2.94;81.68;99629.31;3151272;28;20053;-72
2022/03/07 00:46:20;;;;;;;69.15;26.30;;;;;;;2.68;81.79;99586.03;3147183;28;20059;-72
2022/03/07 00:47:52;;;;;;;65.47;24.85;;;;;;;2.93;81.70;99626.81;3155790;28;20040;-72
2022/03/07 00:49:24;;;;;;;65.43;26.85;;;;;;;2.95;81.63;99630.16;3153488;28;20108;-72
2022/03/07 00:50:56;;;;;;;69.90;28.33;;;;;;;2.95;81.65;99632.75;3153127;28;20390;-72
2022/03/07 00:52:28;;;;;;;68.50;26.50;;;;;;;2.94;81.71;99629.31;3151432;28;20045;-72
2022/03/07 00:53:59;;;;;;;61.97;27.88;;;;;;;2.62;81.60;99572.44;3146807;28;20191;-72
2022/03/07 00:55:31;;;;;;;63.55;26.88;;;;;;;2.95;81.57;99627.59;3154429;28;20117;-72
2022/03/07 00:57:04;;;;;;;59.40;26.35;;;;;;;2.93;81.66;99627.66;3157207;28;20083;-72
2022/03/07 00:58:36;;;;;;;66.25;26.50;;;;;;;2.94;81.80;99628.50;3151920;28;20044;-72
2022/03/07 01:00:09;;;;;;;61.70;26.90;;;;;;;2.95;81.58;99633.59;3155200;28;20048;-72
2022/03/07 01:01:41;;;;;;;68.05;27.48;;;;;;;2.92;81.80;99628.50;3146423;28;20045;-72
2022/03/07 01:03:15;;;;;;;63.92;26.77;;;;;;;2.90;81.83;99625.13;3151804;28;20048;-73
2022/03/07 01:04:50;;;;;;;62.95;27.55;;;;;;;2.97;81.73;99631.84;3152526;28;20049;-72
2022/03/07 01:06:22;;;;;;;60.60;25.63;;;;;;;2.78;81.74;99599.63;3148837;28;20049;-73
2022/03/07 01:07:55;;;;;;;64.07;25.95;;;;;;;2.97;81.74;99624.13;3153382;28;20041;-72
2022/03/07 01:09:27;;;;;;;;;;;;;;;2.79;81.70;99627.03;3158948;28;20240;-72
2022/03/07 01:10:58;;;;;;;60.38;23.75;;;;;;;2.86;82.12;99627.75;3155337;28;19920;-72
2022/03/07 01:12:30;;;;;;;60.88;25.10;;;;;;;2.81;81.86;99612.41;3154046;28;20128;-72
2022/03/07 01:14:02;;;;;;;62.08;26.65;;;;;;;2.92;81.87;99628.50;3146642;28;20052;-73
2022/03/07 01:15:33;;;;;;;55.55;24.08;;;;;;;2.95;81.78;99630.16;3152786;28;20044;-73
2022/03/07 01:17:05;;;;;;;56.38;24.25;;;;;;;2.95;81.69;99623.31;3150874;28;20075;-72
2022/03/07 01:18:37;;;;;;;54.15;24.08;;;;;;;2.97;81.77;99628.44;3149242;28;20056;-72
2022/03/07 01:20:12;;;;;;;66.00;25.88;;;;;;;2.91;81.63;99624.25;3152940;28;20483;-72
2022/03/07 01:21:45;;;;;;;64.13;26.02;;;;;;;2.95;81.59;99633.59;3146650;28;20102;-74
2022/03/07 01:23:17;;;;;;;64.50;27.02;;;;;;;2.91;81.74;99624.25;3150455;28;20176;-72
2022/03/07 01:24:49;;;;;;;64.13;25.55;;;;;;;2.92;81.81;99625.94;3153211;28;20838;-72
2022/03/07 01:26:21;;;;;;;66.30;27.77;;;;;;;2.95;81.66;99630.16;3146383;28;20215;-73
2022/03/07 01:27:53;;;;;;;66.20;27.55;;;;;;;2.94;81.60;99628.50;3153325;28;20044;-73
2022/03/07 01:29:25;;;;;;;62.05;27.27;;;;;;;2.99;81.77;99630.97;3147116;28;20048;-73
2022/03/07 01:30:57;;;;;;;62.58;26.00;;;;;;;2.93;81.71;99622.50;3146791;28;20059;-73
2022/03/07 01:32:28;;;;;;;67.47;26.95;;;;;;;2.95;81.81;99623.31;3155029;28;20116;-73
2022/03/07 01:34:00;;;;;;;62.20;25.38;;;;;;;2.98;81.79;99627.53;3149209;28;20049;-73
2022/03/07 01:35:34;;;;;;;64.07;26.23;;;;;;;2.90;81.68;99609.69;3158163;28;20048;-73
2022/03/07 01:37:05;;;;;;;;;;;;;;;2.81;81.82;99621.84;3151562;28;20089;-72
2022/03/07 01:38:37;;;;;;;58.45;25.10;;;;;;;2.87;81.92;99619.16;3146667;28;19920;-72
2022/03/07 01:40:10;;;;;;;55.20;22.83;;;;;;;2.88;81.90;99620.88;3153892;28;20048;-72
2022/03/07 01:41:43;;;;;;;57.13;24.58;;;;;;;2.92;81.70;99622.50;3147461;28;20044;-72
2022/03/07 01:43:15;;;;;;;55.80;24.48;;;;;;;2.89;81.82;99617.41;3148726;28;20063;-72
2022/03/07 01:44:47;;;;;;;53.75;24.83;;;;;;;2.83;81.66;99602.94;3152952;28;20149;-72
2022/03/07 01:46:19;;;;;;;51.17;22.90;;;;;;;2.94;81.82;99618.19;3147703;28;20051;-72
2022/03/07 01:47:51;;;;;;;51.00;22.08;;;;;;;2.92;81.73;99615.63;3151081;28;20049;-73
2022/03/07 01:49:24;;;;;;;50.03;21.48;;;;;;;2.95;81.71;99614.75;3150598;28;20052;-72
2022/03/07 01:50:57;;;;;;;46.67;21.70;;;;;;;2.92;81.58;99609.66;3152265;28;20091;-72
2022/03/07 01:52:29;;;;;;;47.65;21.27;;;;;;;2.94;81.49;99613.91;3155158;28;20122;-72
2022/03/07 01:54:01;;;;;;;42.55;20.90;;;;;;;2.95;81.58;99613.00;3153553;28;20121;-72
2022/03/07 01:55:33;;;;;;;50.92;21.77;;;;;;;2.96;81.68;99614.72;3152219;28;20067;-73
2022/03/07 01:57:05;;;;;;;48.85;21.80;;;;;;;2.88;81.56;99596.00;3152763;28;20056;-72
2022/03/07 01:58:37;;;;;;;48.67;20.75;;;;;;;2.96;81.39;99609.59;3145896;28;20502;-73
2022/03/07 02:00:12;;;;;;;49.08;22.00;;;;;;;2.94;81.41;99601.03;3153776;28;20474;-73
2022/03/07 02:01:44;;;;;;;47.00;21.85;;;;;;;2.87;81.42;99589.16;3158808;28;20089;-73
2022/03/07 02:03:16;;;;;;;46.97;20.98;;;;;;;2.90;81.37;99598.56;3147716;28;20052;-73
2022/03/07 02:04:48;;;;;;;45.88;21.30;;;;;;;2.76;81.39;99569.66;3154838;28;20051;-72
2022/03/07 02:06:22;;;;;;;47.70;21.13;;;;;;;2.92;81.38;99597.63;3145871;28;20194;-72
2022/03/07 02:07:56;;;;;;;46.45;22.42;;;;;;;2.99;81.52;99616.41;3151627;28;20056;-73
2022/03/07 02:09:28;;;;;;;48.63;20.75;;;;;;;2.99;81.34;99607.81;3150966;28;20500;-73
2022/03/07 02:11:00;;;;;;;45.40;21.52;;;;;;;3.02;81.50;99607.75;3147159;28;20056;-72
2022/03/07 02:12:32;;;;;;;51.05;21.63;;;;;;;3.01;81.38;99603.50;3154407;28;20104;-72
2022/03/07 02:14:12;;;;;;;52.08;23.52;;;;;;;3.03;81.26;99606.91;3145558;28;20048;-72
2022/03/07 02:15:44;;;;;;;54.60;23.30;;;;;;;3.04;81.35;99606.03;3148475;28;20067;-72
2022/03/07 02:17:16;;;;;;;52.92;22.15;;;;;;;3.08;81.48;99610.25;3151919;28;20051;-73
2022/03/07 02:18:48;;;;;;;45.92;21.85;;;;;;;3.04;81.27;99598.31;3145659;28;20056;-72
2022/03/07 02:20:20;;;;;;;46.38;20.95;;;;;;;2.97;81.28;99590.69;3153000;28;20056;-72
2022/03/07 02:22:01;;;;;;;45.20;20.50;;;;;;;3.06;81.32;99605.13;3148313;28;20480;-72
2022/03/07 02:23:33;;;;;;;49.90;23.17;;;;;;;3.06;81.45;99610.25;3148181;28;20046;-72
2022/03/07 02:25:06;;;;;;;47.22;21.23;;;;;;;3.06;81.29;99612.84;3152969;28;20052;-72
2022/03/07 02:26:38;;;;;;;48.22;21.27;;;;;;;3.01;81.30;99606.06;3146678;28;20477;-72
2022/03/07 02:28:10;;;;;;;46.28;22.05;;;;;;;3.07;81.22;99613.69;3151834;28;20203;-73
2022/03/07 02:29:42;;;;;;;49.38;22.02;;;;;;;3.07;81.38;99616.25;3150195;28;20546;-72
2022/03/07 02:31:18;;;;;;;48.78;21.60;;;;;;;3.08;81.34;99617.97;3146480;28;20109;-73
2022/03/07 02:32:51;;;;;;;47.00;22.27;;;;;;;3.02;81.29;99607.75;3155020;28;20040;-72
2022/03/07 02:34:22;;;;;;;45.60;21.83;;;;;;;3.03;81.29;99607.75;3154645;28;20070;-72
2022/03/07 02:35:56;;;;;;;50.53;23.10;;;;;;;3.03;81.34;99606.91;3152635;28;20638;-73
2022/03/07 02:37:42;;;;;;;52.65;22.95;;;;;;;2.89;81.31;99587.41;3151467;28;20059;-74
2022/03/07 02:39:14;;;;;;;49.63;22.23;;;;;;;3.00;81.48;99614.69;3143925;28;20403;-74
2022/03/07 02:40:47;;;;;;;46.58;21.77;;;;;;;3.06;81.56;99610.25;3143483;28;20062;-74
2022/03/07 02:42:19;;;;;;;50.38;22.10;;;;;;;3.08;81.48;99617.97;3138208;28;20074;-74
2022/03/07 02:43:51;;;;;;;50.50;22.60;;;;;;;2.99;81.32;99603.53;3137185;28;20057;-74
2022/03/07 02:45:23;;;;;;;50.10;21.25;;;;;;;3.09;81.46;99620.50;3143291;28;20531;-73
2022/03/07 02:46:55;;;;;;;48.05;22.02;;;;;;;3.09;81.29;99617.94;3135101;28;20531;-73
2022/03/07 02:48:27;;;;;;;53.70;23.20;;;;;;;3.11;81.38;99620.50;3142982;28;20063;-74
2022/03/07 02:49:59;;;;;;;51.67;22.80;;;;;;;2.88;81.31;99577.16;3139481;28;20059;-74
2022/03/07 02:51:31;;;;;;;52.53;23.17;;;;;;;3.12;81.36;99615.31;3140700;28;20051;-74
2022/03/07 02:53:05;;;;;;;54.75;22.83;;;;;;;3.14;81.30;99617.84;3142484;28;20441;-73
2022/03/07 02:54:38;;;;;;;50.83;21.63;;;;;;;3.08;81.27;99610.25;3135435;28;20063;-75
2022/03/07 02:56:09;;;;;;;49.13;22.27;;;;;;;3.12;81.54;99617.03;3139728;28;20188;-71
2022/03/07 02:57:41;;;;;;;50.20;22.73;;;;;;;3.12;81.49;99619.59;3142008;28;20053;-72
2022/03/07 02:59:13;;;;;;;52.60;21.92;;;;;;;3.05;81.46;99608.56;3140228;28;20067;-72
2022/03/07 03:00:46;;;;;;;51.47;21.98;;;;;;;3.08;81.52;99611.09;3144259;28;20055;-74
2022/03/07 03:02:18;;;;;;;55.65;22.45;;;;;;;3.12;81.38;99615.31;3136562;28;20501;-74
2022/03/07 03:03:51;;;;;;;60.03;23.35;;;;;;;3.14;81.48;99617.84;3136591;28;20085;-74
2022/03/07 03:05:22;;;;;;;50.00;21.27;;;;;;;3.12;81.53;99623.03;3144915;28;20088;-74
2022/03/07 03:06:54;;;;;;;52.17;21.67;;;;;;;3.06;81.35;99609.41;3136380;28;20044;-72
2022/03/07 03:08:28;;;;;;;52.58;21.77;;;;;;;3.13;81.14;99623.88;3138923;28;20063;-72
2022/03/07 03:10:00;;;;;;;48.95;21.20;;;;;;;3.14;81.53;99628.16;3145034;28;20050;-72
2022/03/07 03:11:34;;;;;;;52.40;21.37;;;;;;;3.15;81.57;99624.69;3137761;28;20052;-72
2022/03/07 03:13:05;;;;;;;54.63;22.17;;;;;;;3.15;81.47;99627.25;3144160;28;20127;-72
2022/03/07 03:14:39;;;;;;;50.58;21.02;;;;;;;3.05;81.51;99611.16;3141272;28;20063;-71
2022/03/07 03:16:11;;;;;;;50.10;21.35;;;;;;;3.13;81.40;99622.13;3139802;28;20050;-72
2022/03/07 03:17:44;;;;;;;43.63;19.98;;;;;;;3.14;81.52;99623.84;3146157;28;20622;-72
2022/03/07 03:19:16;;;;;;;45.28;20.55;;;;;;;3.12;81.48;99623.03;3147441;28;20078;-72
2022/03/07 03:20:50;;;;;;;44.83;19.55;;;;;;;3.14;81.48;99623.84;3142090;28;20167;-73
2022/03/07 03:22:22;;;;;;;36.95;17.67;;;;;;;3.11;81.60;99618.75;3144175;28;20435;-73
2022/03/07 03:23:56;;;;;;;44.90;19.10;;;;;;;3.14;81.45;99623.00;3136549;28;20054;-73
2022/03/07 03:25:27;;;;;;;49.30;19.52;;;;;;;3.10;81.66;99616.19;3142913;28;20141;-73
2022/03/07 03:26:59;;;;;;;42.10;18.60;;;;;;;3.11;81.55;99616.19;3140400;28;20220;-73
2022/03/07 03:28:31;;;;;;;40.40;18.63;;;;;;;3.11;81.52;99623.06;3142818;28;20055;-73
2022/03/07 03:30:05;;;;;;;45.72;19.05;;;;;;;3.12;81.51;99624.75;3142502;28;20411;-72
2022/03/07 03:31:37;;;;;;;45.92;19.38;;;;;;;3.14;81.54;99629.00;3136301;28;20375;-73
2022/03/07 03:33:09;;;;;;;41.45;18.27;;;;;;;3.11;81.53;99617.91;3143844;28;20052;-72
2022/03/07 03:34:41;;;;;;;46.03;20.17;;;;;;;3.08;81.52;99605.94;3149163;28;20047;-72
2022/03/07 03:36:13;;;;;;;42.83;18.38;;;;;;;3.17;81.51;99620.38;3136848;28;20048;-72
2022/03/07 03:37:45;;;;;;;41.42;18.17;;;;;;;3.16;81.51;99622.06;3144535;28;20335;-72
2022/03/07 03:39:18;;;;;;;40.70;18.15;;;;;;;3.17;81.42;99622.94;3140896;28;20052;-72
2022/03/07 03:40:50;;;;;;;;;;;;;;;2.99;81.49;99625.81;3144533;28;20051;-72
2022/03/07 03:42:22;;;;;;;36.97;16.33;;;;;;;3.05;81.77;99625.75;3139819;28;19924;-72
2022/03/07 03:43:54;;;;;;;37.25;17.00;;;;;;;3.04;81.66;99617.16;3136452;28;20126;-72
2022/03/07 03:45:26;;;;;;;39.60;18.40;;;;;;;2.95;81.50;99600.16;3144420;28;20060;-72
2022/03/07 03:46:57;;;;;;;42.63;18.80;;;;;;;3.13;81.53;99626.44;3141253;28;20110;-71
2022/03/07 03:48:29;;;;;;;38.53;17.67;;;;;;;3.15;81.47;99627.25;3138962;28;20237;-73
2022/03/07 03:50:03;;;;;;;43.60;18.55;;;;;;;3.11;81.35;99623.91;3142160;28;20118;-73
2022/03/07 03:51:35;;;;;;;39.75;19.15;;;;;;;3.16;81.45;99631.53;3136453;28;20060;-72
2022/03/07 03:53:07;;;;;;;37.13;16.52;;;;;;;3.15;81.33;99635.81;3142586;28;20050;-72
2022/03/07 03:54:39;;;;;;;33.60;16.33;;;;;;;3.17;81.39;99635.81;3137110;28;20422;-72
2022/03/07 03:56:11;;;;;;;38.88;18.58;;;;;;;3.16;81.40;99624.66;3135512;28;20049;-73
2022/03/07 03:57:45;;;;;;;37.40;17.90;;;;;;;3.18;81.35;99630.63;3142792;28;20056;-73
2022/03/07 03:59:17;;;;;;;40.60;18.50;;;;;;;3.04;81.09;99600.88;3135110;28;20068;-73
2022/03/07 04:00:49;;;;;;;35.85;17.30;;;;;;;3.18;81.24;99627.22;3138775;28;20054;-73
2022/03/07 04:02:21;;;;;;;40.75;17.60;;;;;;;3.16;81.22;99626.38;3147195;28;20072;-73
2022/03/07 04:03:53;;;;;;;40.00;17.45;;;;;;;3.19;81.23;99622.06;3142092;28;20134;-73
2022/03/07 04:05:25;;;;;;;37.85;17.67;;;;;;;3.19;81.21;99626.31;3144074;28;20044;-72
2022/03/07 04:06:56;;;;;;;35.15;17.65;;;;;;;3.20;81.16;99625.47;3140018;28;20113;-72
2022/03/07 04:08:31;;;;;;;40.10;17.83;;;;;;;3.19;81.30;99622.06;3138458;28;20117;-74
2022/03/07 04:10:06;;;;;;;42.58;17.92;;;;;;;3.16;81.13;99618.66;3146782;28;20048;-73
2022/03/07 04:11:38;;;;;;;40.78;18.83;;;;;;;3.21;81.26;99618.59;3148919;28;20052;-74
2022/03/07 04:13:10;;;;;;;38.08;17.52;;;;;;;3.14;81.20;99607.56;3145675;28;20505;-74
2022/03/07 04:14:42;;;;;;;42.47;18.23;;;;;;;3.16;81.27;99613.50;3141596;28;20049;-74
2022/03/07 04:16:15;;;;;;;39.83;18.52;;;;;;;3.18;81.23;99622.91;3148431;28;20496;-73
2022/03/07 04:17:46;;;;;;;42.10;17.63;;;;;;;3.19;81.35;99623.75;3145180;28;20059;-72
2022/03/07 04:19:18;;;;;;;38.38;17.90;;;;;;;3.21;81.22;99622.00;3141759;28;20090;-71
2022/03/07 04:20:50;;;;;;;42.08;18.25;;;;;;;3.21;81.34;99624.59;3142761;28;20553;-71
2022/03/07 04:22:22;;;;;;;39.60;17.88;;;;;;;3.04;81.27;99593.16;3145216;28;20076;-72
2022/03/07 04:23:55;;;;;;;36.42;17.40;;;;;;;3.23;81.19;99627.13;3137427;28;20056;-72
2022/03/07 04:25:29;;;;;;;36.53;18.17;;;;;;;3.16;81.08;99613.50;3146556;28;20235;-72
2022/03/07 04:27:01;;;;;;;32.70;15.80;;;;;;;3.22;81.13;99621.13;3139696;28;20167;-72
2022/03/07 04:28:33;;;;;;;36.88;16.25;;;;;;;2.86;81.18;99561.72;3139257;28;20059;-71
2022/03/07 04:30:07;;;;;;;38.28;17.30;;;;;;;3.20;80.98;99622.91;3144890;28;20135;-71
2022/03/07 04:31:41;;;;;;;34.13;16.35;;;;;;;3.22;80.97;99623.69;3136710;28;20060;-72
2022/03/07 04:33:15;;;;;;;33.08;16.40;;;;;;;3.13;81.08;99606.69;3144833;28;20411;-71
2022/03/07 04:34:47;;;;;;;31.98;16.48;;;;;;;3.16;81.02;99611.78;3151432;28;20488;-71
2022/03/07 04:36:20;;;;;;;34.78;16.38;;;;;;;3.17;81.14;99616.06;3150428;28;20153;-71
2022/03/07 04:37:51;;;;;;;34.33;16.60;;;;;;;3.21;80.99;99613.44;3154738;28;20051;-71
2022/03/07 04:39:24;;;;;;;32.20;16.15;;;;;;;2.94;81.00;99567.59;3147906;28;20110;-71
2022/03/07 04:40:58;;;;;;;36.28;16.30;;;;;;;3.18;80.95;99606.63;3149603;28;20044;-71
2022/03/07 04:42:29;;;;;;;31.10;16.63;;;;;;;3.19;81.02;99605.75;3153925;28;20114;-71
2022/03/07 04:44:02;;;;;;;32.50;16.38;;;;;;;3.19;81.02;99603.16;3146633;28;20061;-71
2022/03/07 04:45:34;;;;;;;32.95;16.88;;;;;;;3.22;81.07;99602.25;3152518;28;20432;-71
2022/03/07 04:47:06;;;;;;;34.65;16.90;;;;;;;3.24;80.94;99600.53;3150171;28;20484;-71
2022/03/07 04:48:38;;;;;;;34.38;16.85;;;;;;;3.19;80.82;99586.03;3150086;28;20052;-71
2022/03/07 04:50:12;;;;;;;32.78;16.65;;;;;;;3.20;80.81;99589.44;3154548;28;20067;-71
2022/03/07 04:51:46;;;;;;;33.85;17.20;;;;;;;3.26;80.77;99602.19;3151333;28;20749;-71
2022/03/07 04:53:18;;;;;;;32.85;16.85;;;;;;;3.17;80.84;99579.22;3152153;28;20082;-71
2022/03/07 04:54:49;;;;;;;32.50;16.08;;;;;;;3.02;80.91;99562.31;3150931;28;20056;-71
2022/03/07 04:56:23;;;;;;;33.13;16.77;;;;;;;3.18;80.73;99588.59;3146773;28;20080;-71
2022/03/07 04:57:54;;;;;;;31.88;16.98;;;;;;;3.25;80.80;99600.47;3155014;28;20090;-71
2022/03/07 04:59:26;;;;;;;32.40;16.17;;;;;;;3.25;80.69;99603.03;3157445;28;20048;-71
2022/03/07 05:00:57;;;;;;;33.00;16.10;;;;;;;3.24;80.86;99598.78;3154425;28;20118;-71
2022/03/07 05:02:29;;;;;;;31.10;16.40;;;;;;;3.09;80.64;99569.03;3155270;28;20048;-71
2022/03/07 05:04:00;;;;;;;33.25;16.17;;;;;;;3.28;80.84;99597.84;3158407;28;20720;-71
2022/03/07 05:05:32;;;;;;;34.72;16.55;;;;;;;3.29;80.81;99594.41;3153558;28;20048;-72
2022/03/07 05:07:04;;;;;;;34.53;17.38;;;;;;;3.30;80.74;99596.09;3151231;28;20074;-72
2022/03/07 05:08:38;;;;;;;33.80;17.48;;;;;;;3.29;80.77;99602.13;3148743;28;20044;-72
2022/03/07 05:10:09;;;;;;;;;;;;;;;3.14;80.80;99605.00;3155009;28;20127;-72
2022/03/07 05:11:42;;;;;;;35.15;17.35;;;;;;;3.19;81.12;99600.59;3145804;28;20016;-72
2022/03/07 05:13:15;;;;;;;41.92;19.70;;;;;;;2.85;81.00;99542.03;3149026;28;20105;-72
2022/03/07 05:14:47;;;;;;;41.60;17.85;;;;;;;3.20;80.88;99604.88;3152310;28;20040;-72
2022/03/07 05:16:18;;;;;;;40.17;18.45;;;;;;;3.21;80.98;99604.00;3147329;28;20052;-71
2022/03/07 05:17:54;;;;;;;40.53;19.05;;;;;;;3.28;80.80;99615.00;3153790;28;20072;-71
2022/03/07 05:19:25;;;;;;;37.45;17.83;;;;;;;3.27;80.95;99608.19;3149689;28;20052;-72
2022/03/07 05:20:57;;;;;;;41.45;19.48;;;;;;;3.26;80.92;99607.34;3149537;28;20055;-72
2022/03/07 05:22:29;;;;;;;40.45;19.25;;;;;;;3.34;80.86;99613.19;3153269;28;20052;-72
2022/03/07 05:24:01;;;;;;;43.08;21.20;;;;;;;3.32;81.01;99612.38;3146948;28;20131;-72
2022/03/07 05:25:35;;;;;;;39.92;19.63;;;;;;;3.36;80.71;99618.31;3150098;28;20047;-71
2022/03/07 05:27:12;;;;;;;38.05;20.67;;;;;;;3.30;80.64;99616.69;3152185;28;20055;-73
2022/03/07 05:28:43;;;;;;;34.22;17.70;;;;;;;3.26;80.76;99616.78;3146140;28;20052;-72
2022/03/07 05:30:17;;;;;;;34.55;17.95;;;;;;;3.29;80.82;99621.88;3154351;28;20048;-71
2022/03/07 05:31:49;;;;;;;37.40;19.95;;;;;;;3.32;80.70;99622.66;3147355;28;20048;-71
2022/03/07 05:33:21;;;;;;;38.58;19.90;;;;;;;3.31;80.64;99618.41;3148935;28;20036;-71
2022/03/07 05:34:53;;;;;;;42.10;21.25;;;;;;;3.33;80.70;99615.78;3153425;28;20063;-72
2022/03/07 05:36:25;;;;;;;40.50;20.70;;;;;;;3.37;80.56;99620.88;3146491;28;20053;-71
2022/03/07 05:37:57;;;;;;;39.95;20.30;;;;;;;3.46;80.59;99624.13;3152011;28;20953;-72
2022/03/07 05:39:27;;;;;;;39.05;19.83;;;;;;;3.47;80.44;99624.09;3153468;28;20465;-72
2022/03/07 05:40:59;;;;;;;43.10;19.52;;;;;;;3.51;80.65;99627.47;3152021;28;20556;-72
2022/03/07 05:42:33;;;;;;;42.40;19.92;;;;;;;3.51;80.42;99622.31;3155904;28;20554;-72
2022/03/07 05:44:05;;;;;;;40.58;19.10;;;;;;;3.53;80.44;99629.13;3145903;28;20049;-72
2022/03/07 05:45:36;;;;;;;39.72;18.73;;;;;;;3.54;80.39;99625.66;3149691;28;20109;-72
2022/03/07 05:47:09;;;;;;;39.42;17.73;;;;;;;3.51;80.26;99618.00;3152317;28;20045;-72
2022/03/07 05:48:40;;;;;;;38.08;18.00;;;;;;;3.56;80.35;99616.19;3154193;28;20060;-72
2022/03/07 05:50:13;;;;;;;35.92;18.67;;;;;;;3.63;80.37;99629.78;3154400;28;20044;-72
2022/03/07 05:51:46;;;;;;;38.90;18.87;;;;;;;3.62;80.32;99626.38;3150734;28;20101;-72
2022/03/07 05:53:21;;;;;;;36.58;18.60;;;;;;;3.62;80.24;99615.22;3147267;28;20041;-72
2022/03/07 05:54:53;;;;;;;38.47;18.33;;;;;;;3.68;80.20;99624.56;3153397;28;20048;-71
2022/03/07 05:56:25;;;;;;;38.33;19.65;;;;;;;3.63;79.89;99609.19;3146023;28;20056;-72
2022/03/07 05:58:00;;;;;;;42.72;20.27;;;;;;;3.72;79.77;99621.03;3152339;28;20055;-71
2022/03/07 05:59:32;;;;;;;44.00;20.65;;;;;;;3.71;79.90;99621.94;3150688;28;20079;-71
2022/03/07 06:01:03;;;;;;;47.33;21.77;;;;;;;3.73;79.79;99622.75;3147464;28;20263;-71
2022/03/07 06:02:35;;;;;;;42.60;21.15;;;;;;;3.74;79.65;99625.28;3154563;28;20530;-71
2022/03/07 06:04:08;;;;;;;40.13;20.58;;;;;;;3.75;79.69;99624.41;3145993;28;20086;-70
2022/03/07 06:05:40;;;;;;;43.08;21.08;;;;;;;3.73;79.61;99623.59;3153392;28;20086;-71
2022/03/07 06:07:12;;;;;;;45.35;21.48;;;;;;;3.78;79.50;99626.91;3152635;28;20040;-71
2022/03/07 06:08:44;;;;;;;41.50;20.65;;;;;;;3.78;79.45;99619.19;3145555;28;20488;-70
2022/03/07 06:10:16;;;;;;;42.10;20.70;;;;;;;3.81;79.41;99629.41;3153386;28;20048;-70
2022/03/07 06:11:47;;;;;;;47.45;22.60;;;;;;;3.81;79.35;99626.84;3150883;28;20094;-70
2022/03/07 06:13:21;;;;;;;50.03;23.75;;;;;;;3.84;79.28;99628.50;3153641;28;20052;-70
2022/03/07 06:14:52;;;;;;;48.63;23.50;;;;;;;3.79;79.25;99626.06;3153181;28;20067;-71
2022/03/07 06:16:24;;;;;;;54.95;26.20;;;;;;;3.80;79.07;99624.31;3145529;28;20056;-71
2022/03/07 06:17:59;;;;;;;57.85;27.48;;;;;;;3.63;79.13;99594.59;3148654;28;20082;-71
2022/03/07 06:19:31;;;;;;;53.13;25.33;;;;;;;3.86;79.15;99635.34;3156578;28;20079;-71
2022/03/07 06:21:03;;;;;;;50.65;25.05;;;;;;;3.73;79.12;99613.31;3145537;28;20113;-71
2022/03/07 06:22:35;;;;;;;50.10;24.70;;;;;;;3.81;79.13;99624.28;3153431;28;20139;-71
2022/03/07 06:24:07;;;;;;;55.42;26.13;;;;;;;3.86;79.12;99629.34;3145221;28;20579;-71
2022/03/07 06:25:38;;;;;;;51.08;24.92;;;;;;;3.47;78.92;99564.06;3148047;28;20048;-71
2022/03/07 06:27:28;;;;;;;51.30;25.05;;;;;;;3.84;78.87;99631.09;3152421;28;20105;-71
2022/03/07 06:29:02;;;;;;;49.95;24.15;;;;;;;3.63;79.09;99606.63;3146811;28;20778;-71
2022/03/07 06:30:33;;;;;;;45.40;23.25;;;;;;;3.75;79.14;99616.66;3153516;28;20537;-71
2022/03/07 06:32:06;;;;;;;46.85;22.73;;;;;;;3.85;78.98;99627.66;3147430;28;20060;-71
2022/03/07 06:33:38;;;;;;;43.67;22.00;;;;;;;3.83;79.05;99626.84;3147888;28;20053;-71
2022/03/07 06:35:10;;;;;;;42.55;21.42;;;;;;;3.85;79.11;99630.22;3155115;28;20048;-71
2022/03/07 06:36:41;;;;;;;48.72;23.83;;;;;;;3.86;78.94;99626.75;3145325;28;20483;-71
2022/03/07 06:38:13;;;;;;;49.45;22.40;;;;;;;3.86;78.89;99630.19;3150802;28;20092;-71
2022/03/07 06:39:45;;;;;;;42.10;20.92;;;;;;;3.85;79.01;99625.91;3150103;28;20525;-72
2022/03/07 06:41:17;;;;;;;50.22;21.80;;;;;;;3.85;78.69;99628.50;3145660;28;20045;-72
2022/03/07 06:42:49;;;;;;;46.00;22.88;;;;;;;3.86;78.83;99625.03;3153788;28;20121;-71
2022/03/07 06:44:22;;;;;;;50.97;23.90;;;;;;;3.86;78.71;99622.47;3148823;28;20118;-72
2022/03/07 06:45:54;;;;;;;52.97;24.65;;;;;;;3.90;78.70;99625.81;3147796;28;20048;-72
2022/03/07 06:47:26;;;;;;;56.38;26.20;;;;;;;3.92;78.75;99633.53;3152570;28;20514;-72
2022/03/07 06:48:58;;;;;;;48.67;24.08;;;;;;;3.86;78.71;99614.72;3145227;28;20070;-72
2022/03/07 06:50:30;;;;;;;53.08;25.08;;;;;;;3.96;78.63;99619.69;3150628;28;20483;-72
2022/03/07 06:52:02;;;;;;;59.13;28.13;;;;;;;3.99;78.75;99619.63;3152799;28;20075;-71
2022/03/07 06:53:35;;;;;;;63.67;29.65;;;;;;;3.98;78.60;99613.63;3146795;28;20052;-72
2022/03/07 06:55:08;;;;;;;63.42;28.00;;;;;;;4.05;78.75;99620.34;3153508;28;20505;-71
2022/03/07 06:56:40;;;;;;;67.15;28.73;;;;;;;4.07;78.78;99617.72;3145127;28;20056;-71
2022/03/07 06:58:11;;;;;;;69.45;29.17;;;;;;;4.12;78.51;99621.06;3148811;28;20048;-71
2022/03/07 06:59:45;;;;;;;65.43;29.02;;;;;;;4.16;78.43;99622.69;3153432;28;20525;-70
2022/03/07 07:01:16;;;;;;;62.67;26.13;;;;;;;4.16;78.39;99629.56;3147591;28;20045;-71
2022/03/07 07:02:48;;;;;;;62.35;27.42;;;;;;;4.16;78.15;99622.69;3151857;28;20043;-71
2022/03/07 07:04:21;;;;;;;61.33;27.65;;;;;;;4.19;78.10;99625.19;3155161;28;20109;-72
2022/03/07 07:05:52;;;;;;;67.90;28.73;;;;;;;4.21;78.09;99628.59;3154039;28;20117;-71
2022/03/07 07:07:24;;;;;;;62.65;27.75;;;;;;;4.22;77.89;99621.72;3152960;28;20138;-72
2022/03/07 07:08:56;;;;;;;63.53;28.92;;;;;;;4.19;77.88;99626.94;3146876;28;20405;-71
2022/03/07 07:10:28;;;;;;;62.60;28.70;;;;;;;4.21;77.89;99623.44;3150958;28;20074;-71